Time;durP1;ratioP1;P1;durP2;ratioP2;P2;SDS_P1;SDS_P2;PMS_P1;PMS_P2;Temp;Humidity;BMP_temperature;BMP_pressure;BME280_temperature;BME280_humidity;BME280_pressure;Samples;Min_cycle;Max_cycle;Signal;HPM_P1;HPM_P2
2022/07/17 00:00:25;;;;;;;5.10;2.47;;;;;;;13.65;87.21;102650.88;5028931;28;20432;-60
2022/07/17 00:02:50;;;;;;;4.60;2.20;;;;;;;13.58;87.55;102647.06;5016257;28;20018;-60
2022/07/17 00:05:16;;;;;;;5.43;2.33;;;;;;;13.53;88.24;102645.94;5030335;28;20188;-59
2022/07/17 00:07:42;;;;;;;4.30;2.13;;;;;;;13.54;88.26;102639.94;5017182;28;20405;-60
2022/07/17 00:10:07;;;;;;;4.68;2.00;;;;;;;13.48;88.24;102642.19;5030298;28;20029;-59
2022/07/17 00:12:33;;;;;;;4.95;2.20;;;;;;;13.41;88.81;102646.19;5016953;28;20044;-60
2022/07/17 00:14:58;;;;;;;3.72;2.00;;;;;;;13.34;88.96;102650.22;5029874;28;20021;-60
2022/07/17 00:17:25;;;;;;;5.65;2.55;;;;;;;13.25;89.91;102648.06;5021206;28;20033;-60
2022/07/17 00:19:50;;;;;;;6.07;2.30;;;;;;;13.21;89.74;102653.91;5030308;28;20075;-60
2022/07/17 00:22:15;;;;;;;3.80;2.22;;;;;;;13.15;90.33;102651.91;5029393;28;20022;-59
2022/07/17 00:24:40;;;;;;;5.20;3.40;;;;;;;13.11;90.97;102649.97;5029896;28;20029;-58
2022/07/17 00:27:06;;;;;;;6.45;2.42;;;;;;;13.07;90.91;102648.03;5029753;28;20034;-60
2022/07/17 00:29:31;;;;;;;6.13;3.17;;;;;;;13.08;90.61;102648.09;5029960;28;20025;-60
2022/07/17 00:31:57;;;;;;;4.75;2.55;;;;;;;13.08;90.31;102647.19;5029500;28;20137;-59
2022/07/17 00:34:22;;;;;;;6.65;2.55;;;;;;;13.06;89.93;102649.72;5028942;28;20025;-59
2022/07/17 00:36:47;;;;;;;8.63;2.75;;;;;;;13.02;90.27;102647.81;5029758;28;20105;-59
2022/07/17 00:39:13;;;;;;;6.50;2.40;;;;;;;12.99;90.73;102649.34;5016882;28;20045;-58
2022/07/17 00:41:39;;;;;;;6.18;2.63;;;;;;;12.95;90.55;102645.69;5020576;28;20038;-60
2022/07/17 00:44:10;;;;;;;5.60;3.38;;;;;;;12.94;90.62;102654.31;5024618;28;20048;-59
2022/07/17 00:46:35;;;;;;;;;;;;;;;12.87;91.16;102652.19;5028501;28;20526;-60
2022/07/17 00:49:02;;;;;;;8.07;3.00;;;;;;;12.88;90.53;102651.41;5028989;28;20183;-59
2022/07/17 00:51:27;;;;;;;8.50;3.20;;;;;;;12.88;90.08;102654.88;5015790;28;20416;-59
2022/07/17 00:53:54;;;;;;;4.28;2.97;;;;;;;12.85;90.22;102647.81;5028626;28;20033;-58
2022/07/17 00:56:22;;;;;;;4.13;3.08;;;;;;;12.83;90.64;102656.34;5028443;28;20033;-59
2022/07/17 00:58:49;;;;;;;5.90;2.88;;;;;;;12.81;90.26;102657.97;5029381;28;20358;-60
2022/07/17 01:01:14;;;;;;;6.53;3.28;;;;;;;12.79;90.07;102651.81;5028542;28;20040;-59
2022/07/17 01:03:40;;;;;;;6.00;3.05;;;;;;;12.79;90.09;102649.22;5028186;28;20022;-60
2022/07/17 01:06:06;;;;;;;3.58;2.58;;;;;;;12.73;90.69;102645.50;5028658;28;20048;-58
2022/07/17 01:08:32;;;;;;;6.00;2.88;;;;;;;12.68;90.98;102639.13;5021722;28;20056;-60
2022/07/17 01:10:57;;;;;;;6.75;3.05;;;;;;;12.66;92.11;102632.97;5028580;28;20059;-58
2022/07/17 01:13:23;;;;;;;5.47;2.88;;;;;;;12.67;91.70;102639.97;5015479;28;20104;-59
2022/07/17 01:15:48;;;;;;;4.60;2.65;;;;;;;12.64;91.71;102633.69;5025105;28;20037;-60
2022/07/17 01:18:15;;;;;;;6.53;3.55;;;;;;;12.56;91.70;102642.00;5028807;28;20068;-59
2022/07/17 01:20:44;;;;;;;3.67;2.63;;;;;;;12.49;93.00;102635.59;5029088;28;20031;-59
2022/07/17 01:23:10;;;;;;;3.60;2.60;;;;;;;12.44;91.78;102631.84;5021817;28;20486;-59
2022/07/17 01:25:35;;;;;;;10.35;2.72;;;;;;;12.36;92.30;102638.31;5025936;28;20095;-59
2022/07/17 01:28:01;;;;;;;5.45;3.38;;;;;;;12.25;93.07;102637.75;5028406;28;20032;-60
2022/07/17 01:30:28;;;;;;;6.80;2.60;;;;;;;12.14;94.53;102632.00;5028379;28;20087;-59
2022/07/17 01:32:53;;;;;;;7.00;3.03;;;;;;;12.05;96.02;102642.75;5028431;28;20072;-60
2022/07/17 01:35:19;;;;;;;7.43;2.50;;;;;;;12.00;95.25;102639.88;5028114;28;20064;-60
2022/07/17 01:37:45;;;;;;;7.88;3.00;;;;;;;12.00;96.24;102634.69;5027975;28;20045;-59
2022/07/17 01:40:12;;;;;;;8.95;3.35;;;;;;;11.96;96.09;102639.66;5026614;28;20450;-58
2022/07/17 01:42:39;;;;;;;6.45;3.20;;;;;;;11.93;96.97;102629.97;5028323;28;20045;-58
2022/07/17 01:45:05;;;;;;;8.25;3.20;;;;;;;11.92;96.03;102625.59;5028104;28;20033;-60
2022/07/17 01:47:30;;;;;;;6.30;3.15;;;;;;;11.87;97.06;102632.25;5028324;28;20413;-60
2022/07/17 01:49:57;;;;;;;6.47;2.88;;;;;;;11.83;97.85;102632.88;5027887;28;20034;-58
2022/07/17 01:52:23;;;;;;;8.25;2.92;;;;;;;11.80;98.42;102635.31;5027599;28;20025;-59
2022/07/17 01:54:49;;;;;;;6.05;3.17;;;;;;;11.75;97.78;102635.94;5022918;28;20036;-60
2022/07/17 01:57:14;;;;;;;4.80;2.40;;;;;;;11.71;98.75;102636.56;5020315;28;20037;-59
2022/07/17 01:59:40;;;;;;;4.55;2.78;;;;;;;11.69;98.74;102643.41;5027750;28;20356;-60
2022/07/17 02:02:07;;;;;;;6.95;3.13;;;;;;;11.71;98.79;102646.94;5028071;28;20417;-59
2022/07/17 02:04:34;;;;;;;5.65;3.60;;;;;;;11.77;97.23;102652.50;5027992;28;20025;-58
2022/07/17 02:07:00;;;;;;;5.20;3.35;;;;;;;11.77;97.47;102647.31;5027596;28;20029;-60
2022/07/17 02:09:25;;;;;;;8.25;3.10;;;;;;;11.70;97.55;102650.38;5027150;28;20539;-60
2022/07/17 02:11:51;;;;;;;6.25;2.47;;;;;;;11.65;98.08;102649.22;5026191;28;20162;-60
2022/07/17 02:14:16;;;;;;;6.88;2.58;;;;;;;11.64;98.51;102650.00;5027135;28;20111;-59
2022/07/17 02:16:41;;;;;;;6.82;3.10;;;;;;;11.61;97.66;102649.84;5027451;28;20017;-58
2022/07/17 02:19:07;;;;;;;7.78;2.70;;;;;;;11.53;98.31;102647.69;5014145;28;20030;-59
2022/07/17 02:21:32;;;;;;;5.53;3.35;;;;;;;11.46;99.01;102655.94;5019850;28;20036;-58
2022/07/17 02:23:57;;;;;;;4.88;3.40;;;;;;;11.39;100.00;102656.41;5017971;28;20079;-59
2022/07/17 02:26:23;;;;;;;6.05;3.30;;;;;;;11.34;100.00;102650.94;5028113;28;20032;-58
2022/07/17 02:28:48;;;;;;;8.57;3.17;;;;;;;11.34;100.00;102655.25;5017080;28;20533;-59
2022/07/17 02:31:14;;;;;;;7.25;3.22;;;;;;;11.28;100.00;102651.47;5027245;28;20029;-59
2022/07/17 02:33:39;;;;;;;6.63;3.20;;;;;;;11.23;100.00;102658.09;5026986;28;20112;-59
2022/07/17 02:36:05;;;;;;;6.22;3.15;;;;;;;11.25;100.00;102653.00;5027229;28;20021;-57
2022/07/17 02:38:30;;;;;;;7.35;3.10;;;;;;;11.23;100.00;102650.31;5027239;28;20603;-59
2022/07/17 02:40:56;;;;;;;5.95;3.75;;;;;;;11.21;100.00;102643.25;5026503;28;20049;-58
2022/07/17 02:43:21;;;;;;;5.32;3.42;;;;;;;11.19;100.00;102640.56;5027476;28;20029;-59
2022/07/17 02:45:46;;;;;;;9.65;3.58;;;;;;;11.16;100.00;102635.19;5026683;28;20109;-59
2022/07/17 02:48:11;;;;;;;7.40;3.60;;;;;;;11.13;100.00;102637.63;5027486;28;20022;-59
2022/07/17 02:50:37;;;;;;;7.60;3.30;;;;;;;11.10;100.00;102640.03;5027124;28;20080;-58
2022/07/17 02:53:02;;;;;;;5.50;3.13;;;;;;;11.07;100.00;102632.06;5026957;28;20084;-59
2022/07/17 02:55:28;;;;;;;5.93;3.50;;;;;;;11.07;100.00;102629.47;5018987;28;20032;-57
2022/07/17 02:57:53;;;;;;;6.45;3.63;;;;;;;11.03;100.00;102633.56;5024303;28;20034;-59
2022/07/17 03:00:20;;;;;;;4.25;3.40;;;;;;;10.99;100.00;102632.50;5026666;28;20504;-59
2022/07/17 03:02:46;;;;;;;5.15;3.47;;;;;;;10.95;100.00;102629.66;5026199;28;20392;-59
2022/07/17 03:05:13;;;;;;;4.35;3.83;;;;;;;10.91;100.00;102633.75;5012992;28;20033;-58
2022/07/17 03:07:38;;;;;;;4.03;3.60;;;;;;;10.87;100.00;102637.88;5026710;28;20036;-59
2022/07/17 03:10:04;;;;;;;7.25;3.65;;;;;;;10.88;100.00;102646.56;5027252;28;20037;-58
2022/07/17 03:12:29;;;;;;;4.85;3.40;;;;;;;10.88;100.00;102646.56;5027445;28;20043;-58
2022/07/17 03:14:55;;;;;;;6.72;3.50;;;;;;;10.88;100.00;102646.56;5024298;28;20381;-58
2022/07/17 03:17:20;;;;;;;4.88;3.30;;;;;;;10.89;100.00;102656.13;5017558;28;20017;-59
2022/07/17 03:19:45;;;;;;;4.35;3.20;;;;;;;10.94;100.00;102657.28;5019465;28;20508;-58
2022/07/17 03:22:11;;;;;;;5.28;3.22;;;;;;;10.97;100.00;102653.97;5030377;28;20287;-58
2022/07/17 03:24:36;;;;;;;8.35;3.38;;;;;;;10.96;100.00;102666.06;5030914;28;20029;-58
2022/07/17 03:27:01;;;;;;;6.53;3.28;;;;;;;10.95;100.00;102660.78;5030665;28;20025;-59
2022/07/17 03:29:27;;;;;;;5.28;3.65;;;;;;;10.93;100.00;102661.59;5030260;28;20091;-59
2022/07/17 03:31:52;;;;;;;6.70;3.30;;;;;;;10.88;100.00;102657.78;5029964;28;20036;-58
2022/07/17 03:34:17;;;;;;;5.32;3.55;;;;;;;10.81;100.00;102653.94;5028978;28;20025;-59
2022/07/17 03:36:43;;;;;;;7.38;3.47;;;;;;;10.82;100.00;102652.25;5029212;28;20021;-59
2022/07/17 03:39:09;;;;;;;6.70;3.53;;;;;;;10.71;100.00;102649.03;5015634;28;20056;-59
2022/07/17 03:41:34;;;;;;;5.68;3.42;;;;;;;10.63;100.00;102645.94;5029094;28;20085;-59
2022/07/17 03:43:59;;;;;;;6.35;3.95;;;;;;;10.60;100.00;102647.47;5027961;28;20024;-60
2022/07/17 03:46:25;;;;;;;8.40;4.03;;;;;;;10.55;100.00;102645.50;5028691;28;20021;-59
2022/07/17 03:48:50;;;;;;;10.40;4.72;;;;;;;10.55;100.00;102644.59;5028782;28;20052;-59
2022/07/17 03:51:16;;;;;;;7.70;3.72;;;;;;;10.52;100.00;102647.88;5030229;28;20036;-58
2022/07/17 03:53:41;;;;;;;8.98;4.03;;;;;;;10.52;100.00;102644.41;5023412;28;20129;-58
2022/07/17 03:56:07;;;;;;;6.97;4.07;;;;;;;10.57;100.00;102653.38;5026441;28;20029;-58
2022/07/17 03:58:33;;;;;;;5.88;3.83;;;;;;;10.59;100.00;102640.50;5030331;28;20413;-59
2022/07/17 04:00:59;;;;;;;8.13;3.80;;;;;;;10.57;100.00;102646.50;5030000;28;20275;-58
2022/07/17 04:03:24;;;;;;;8.63;4.30;;;;;;;10.59;100.00;102651.78;5017710;28;20485;-58
2022/07/17 04:05:49;;;;;;;7.95;4.53;;;;;;;10.57;100.00;102654.28;5022330;28;20492;-60
2022/07/17 04:08:15;;;;;;;7.20;4.18;;;;;;;10.62;100.00;102657.13;5029925;28;20075;-59
2022/07/17 04:10:42;;;;;;;4.65;3.80;;;;;;;10.66;100.00;102663.41;5028729;28;20120;-59
2022/07/17 04:13:07;;;;;;;5.72;3.70;;;;;;;10.66;100.00;102671.19;5029513;28;20412;-59
2022/07/17 04:18:16;;;;;;;6.43;3.80;;;;;;;10.67;100.00;102662.59;5030089;28;20036;-58
2022/07/17 04:20:42;;;;;;;6.30;4.00;;;;;;;10.65;100.00;102678.06;5019729;28;20018;-59
2022/07/17 04:23:08;;;;;;;5.28;3.70;;;;;;;10.66;100.00;102674.69;5029307;28;20108;-59
2022/07/17 04:25:33;;;;;;;9.18;4.00;;;;;;;10.67;100.00;102672.97;5030282;28;20433;-59
2022/07/17 04:27:58;;;;;;;7.13;4.68;;;;;;;10.70;100.00;102680.94;5023894;28;20022;-58
2022/07/17 04:30:24;;;;;;;9.50;4.57;;;;;;;10.72;100.00;102674.13;5024700;28;20030;-59
2022/07/17 04:32:49;;;;;;;4.40;4.00;;;;;;;10.72;100.00;102666.34;5029013;28;20018;-58
2022/07/17 04:35:15;;;;;;;6.88;3.70;;;;;;;10.74;100.00;102672.53;5022857;28;20112;-59
2022/07/17 04:37:40;;;;;;;6.53;4.50;;;;;;;10.76;100.00;102670.94;5029428;28;20049;-58
2022/07/17 04:40:06;;;;;;;9.60;4.60;;;;;;;10.76;100.00;102662.25;5029407;28;20018;-58
2022/07/17 04:42:31;;;;;;;7.38;4.55;;;;;;;10.78;100.00;102658.97;5029322;28;20029;-59
2022/07/17 04:44:57;;;;;;;6.25;4.40;;;;;;;10.79;100.00;102660.72;5028979;28;20496;-59
2022/07/17 04:47:22;;;;;;;8.23;5.30;;;;;;;10.79;100.00;102665.94;5029084;28;20648;-58
2022/07/17 04:49:47;;;;;;;9.07;5.10;;;;;;;10.85;100.00;102669.72;5029317;28;20057;-59
2022/07/17 04:52:12;;;;;;;6.25;5.07;;;;;;;10.94;100.00;102672.84;5029074;28;20025;-59
2022/07/17 04:54:38;;;;;;;6.45;5.00;;;;;;;11.06;100.00;102675.28;5017912;28;20021;-58
2022/07/17 04:57:03;;;;;;;6.72;5.60;;;;;;;11.14;100.00;102678.31;5028566;28;20021;-59
2022/07/17 04:59:28;;;;;;;8.00;6.30;;;;;;;11.24;100.00;102685.84;5028933;28;20025;-58
2022/07/17 05:01:54;;;;;;;7.88;5.82;;;;;;;11.33;100.00;102695.00;5029300;28;20029;-58
2022/07/17 05:04:20;;;;;;;6.80;5.55;;;;;;;11.41;100.00;102698.91;5019985;28;20432;-59
2022/07/17 05:06:46;;;;;;;7.43;6.47;;;;;;;11.51;100.00;102696.03;5015472;28;20029;-60
2022/07/17 05:09:11;;;;;;;8.35;5.80;;;;;;;11.60;100.00;102689.59;5029125;28;20492;-58
2022/07/17 05:11:36;;;;;;;9.60;5.88;;;;;;;11.68;100.00;102688.34;5025507;28;20031;-59
2022/07/17 05:14:02;;;;;;;8.57;6.13;;;;;;;11.77;100.00;102688.88;5028651;28;20501;-59
2022/07/17 05:16:28;;;;;;;10.90;6.38;;;;;;;11.88;100.00;102688.56;5017717;28;20026;-58
2022/07/17 05:18:53;;;;;;;10.80;6.05;;;;;;;11.95;100.00;102677.72;5015436;28;20714;-59
2022/07/17 05:21:18;;;;;;;7.35;5.65;;;;;;;12.04;100.00;102681.63;5028532;28;20072;-60
2022/07/17 05:23:43;;;;;;;9.35;6.18;;;;;;;12.09;100.00;102677.56;5028436;28;20030;-59
2022/07/17 05:26:09;;;;;;;8.60;5.88;;;;;;;12.17;100.00;102680.63;5028663;28;20025;-59
2022/07/17 05:28:35;;;;;;;9.85;6.20;;;;;;;12.23;100.00;102679.25;5028633;28;20103;-59
2022/07/17 05:31:00;;;;;;;9.90;5.90;;;;;;;12.33;100.00;102679.75;5019292;28;20117;-59
2022/07/17 05:33:25;;;;;;;8.30;5.35;;;;;;;12.44;100.00;102686.44;5027331;28;20025;-59
2022/07/17 05:35:51;;;;;;;11.02;5.60;;;;;;;12.56;99.19;102682.69;5025233;28;20458;-58
2022/07/17 05:38:16;;;;;;;6.28;4.00;;;;;;;12.70;98.00;102684.31;5025698;28;20453;-59
2022/07/17 05:40:42;;;;;;;8.80;3.83;;;;;;;12.82;96.71;102685.78;5018481;28;20049;-59
2022/07/17 05:43:08;;;;;;;4.35;3.30;;;;;;;12.97;96.38;102680.47;5016726;28;20061;-59
2022/07/17 05:45:33;;;;;;;7.60;3.85;;;;;;;13.07;95.21;102677.56;5011277;28;20053;-59
2022/07/17 05:47:58;;;;;;;5.30;3.60;;;;;;;13.17;94.52;102681.50;5007306;28;20055;-59
2022/07/17 05:50:23;;;;;;;5.55;3.83;;;;;;;13.29;93.58;102668.19;5009914;28;20155;-59
2022/07/17 05:52:49;;;;;;;6.25;3.50;;;;;;;13.44;92.75;102668.09;5012443;28;20385;-59
2022/07/17 05:55:14;;;;;;;6.40;4.03;;;;;;;13.60;91.55;102667.97;5026457;28;20351;-59
2022/07/17 05:57:39;;;;;;;5.70;3.38;;;;;;;13.75;91.56;102675.63;5027532;28;20033;-60
2022/07/17 06:00:07;;;;;;;7.40;3.90;;;;;;;13.84;91.05;102688.19;5019964;28;20420;-59
2022/07/17 06:02:32;;;;;;;7.25;4.35;;;;;;;13.92;90.06;102676.44;5026310;28;20021;-59
2022/07/17 06:04:58;;;;;;;5.25;3.28;;;;;;;14.07;89.59;102665.84;5025664;28;20025;-58
2022/07/17 06:07:23;;;;;;;6.25;3.55;;;;;;;14.14;88.64;102672.22;5023309;28;20477;-60
2022/07/17 06:09:48;;;;;;;4.45;3.55;;;;;;;14.22;87.28;102665.66;5023780;28;20030;-60
2022/07/17 06:12:14;;;;;;;8.13;3.55;;;;;;;14.32;87.32;102650.44;5024492;28;20465;-60
2022/07/17 06:14:39;;;;;;;7.97;3.97;;;;;;;14.42;85.84;102660.47;5022583;28;20370;-59
2022/07/17 06:17:04;;;;;;;3.78;3.17;;;;;;;14.58;85.38;102655.94;5024644;28;20520;-59
2022/07/17 06:19:29;;;;;;;5.10;3.30;;;;;;;14.75;85.49;102651.47;5024333;28;20021;-59
2022/07/17 06:21:55;;;;;;;6.07;3.75;;;;;;;14.95;84.84;102657.56;5023163;28;20029;-59
2022/07/17 06:24:20;;;;;;;4.13;2.97;;;;;;;15.13;84.39;102654.84;5019702;28;20022;-59
2022/07/17 06:26:45;;;;;;;7.28;3.97;;;;;;;15.30;83.78;102661.59;5008361;28;20470;-58
2022/07/17 06:29:11;;;;;;;7.63;3.80;;;;;;;15.41;83.60;102660.34;5007805;28;20125;-58
2022/07/17 06:31:36;;;;;;;7.93;3.40;;;;;;;15.55;82.97;102660.88;5008074;28;20117;-59
2022/07/17 06:34:01;;;;;;;6.75;3.47;;;;;;;15.60;80.71;102664.56;5006566;28;20038;-59
2022/07/17 06:36:27;;;;;;;6.63;3.53;;;;;;;15.59;80.21;102668.03;5006748;28;20044;-60
2022/07/17 06:38:52;;;;;;;5.88;3.42;;;;;;;15.77;80.03;102679.13;5008115;28;20029;-59
2022/07/17 06:41:17;;;;;;;7.90;3.53;;;;;;;15.89;78.99;102668.25;5009362;28;20141;-59
2022/07/17 06:43:42;;;;;;;9.18;3.83;;;;;;;15.79;79.25;102670.53;5015463;28;20030;-59
2022/07/17 06:46:08;;;;;;;5.93;3.00;;;;;;;15.93;78.21;102675.41;5007613;28;20017;-59
2022/07/17 06:48:33;;;;;;;6.38;3.33;;;;;;;16.17;78.21;102690.31;5007529;28;20014;-59
2022/07/17 06:50:58;;;;;;;5.60;3.15;;;;;;;16.31;77.74;102690.81;5006844;28;20026;-58
2022/07/17 06:53:24;;;;;;;6.18;3.58;;;;;;;16.50;76.96;102686.25;5007555;28;20025;-59
2022/07/17 06:55:49;;;;;;;9.35;3.53;;;;;;;16.71;74.78;102696.63;5012353;28;20469;-59
2022/07/17 06:58:14;;;;;;;7.00;3.25;;;;;;;16.91;73.38;102696.44;5018254;28;20021;-59
2022/07/17 07:00:40;;;;;;;8.55;3.30;;;;;;;17.07;71.63;102703.09;5014340;28;20024;-60
2022/07/17 07:03:06;;;;;;;5.28;2.67;;;;;;;17.16;71.72;102702.56;5014881;28;20025;-60
2022/07/17 07:05:31;;;;;;;5.80;3.33;;;;;;;17.42;72.57;102697.31;5023720;28;20109;-59
2022/07/17 07:07:56;;;;;;;11.25;3.53;;;;;;;17.63;71.86;102704.97;5014309;28;20033;-59
2022/07/17 07:10:21;;;;;;;4.68;2.88;;;;;;;17.94;71.80;102704.16;5012709;28;20085;-60
2022/07/17 07:12:47;;;;;;;5.30;2.90;;;;;;;18.20;70.14;102706.72;5013896;28;20121;-58
2022/07/17 07:15:14;;;;;;;4.30;3.10;;;;;;;18.37;67.22;102709.84;5014127;28;20030;-58
2022/07/17 07:17:40;;;;;;;4.85;2.92;;;;;;;18.59;67.13;102713.97;5014324;28;20049;-58
2022/07/17 07:20:06;;;;;;;4.05;2.75;;;;;;;18.76;67.12;102718.81;5027010;28;20028;-59
2022/07/17 07:22:32;;;;;;;4.65;2.50;;;;;;;18.90;65.36;102713.94;5033697;28;20482;-60
2022/07/17 07:24:57;;;;;;;6.30;2.85;;;;;;;19.13;66.72;102723.28;5032879;28;20132;-60
2022/07/17 07:27:22;;;;;;;4.10;2.50;;;;;;;19.32;62.88;102715.03;5033806;28;20056;-59
2022/07/17 07:29:48;;;;;;;3.67;2.45;;;;;;;19.39;62.34;102705.56;5033381;28;20029;-60
2022/07/17 07:32:13;;;;;;;4.97;2.92;;;;;;;19.60;63.84;102709.56;5031649;28;20115;-60
2022/07/17 07:34:38;;;;;;;5.15;2.85;;;;;;;19.78;63.14;102697.69;5032256;28;20024;-60
2022/07/17 07:37:04;;;;;;;4.70;3.47;;;;;;;20.00;62.79;102698.19;5032809;28;20036;-61
2022/07/17 07:39:29;;;;;;;5.97;2.80;;;;;;;20.22;61.02;102703.97;5031520;28;20025;-59
2022/07/17 07:41:54;;;;;;;4.15;2.00;;;;;;;20.40;59.85;102704.31;5026420;28;20045;-57
2022/07/17 07:44:19;;;;;;;3.28;2.35;;;;;;;20.59;59.11;102704.69;5031240;28;20029;-59
2022/07/17 07:46:45;;;;;;;3.47;2.55;;;;;;;20.75;58.49;102700.63;5032652;28;20381;-59
2022/07/17 07:49:10;;;;;;;4.65;2.47;;;;;;;20.94;58.59;102705.34;5031311;28;20029;-58
2022/07/17 07:51:35;;;;;;;8.70;2.92;;;;;;;21.08;57.69;102708.25;5027165;28;20375;-59
2022/07/17 07:54:01;;;;;;;5.05;3.13;;;;;;;21.18;55.39;102704.00;5023101;28;20087;-59
2022/07/17 07:56:27;;;;;;;6.95;3.42;;;;;;;21.14;55.07;102708.34;5032822;28;20025;-59
2022/07/17 07:58:52;;;;;;;3.53;2.30;;;;;;;21.30;57.90;102714.75;5033040;28;20029;-59
2022/07/17 08:01:18;;;;;;;4.03;2.88;;;;;;;21.43;57.29;102721.13;5029130;28;20025;-59
2022/07/17 08:03:43;;;;;;;5.38;3.60;;;;;;;21.63;54.88;102711.75;5033302;28;20025;-60
2022/07/17 08:06:08;;;;;;;6.80;2.78;;;;;;;21.67;53.60;102710.94;5021777;28;20022;-60
2022/07/17 08:08:34;;;;;;;3.90;2.42;;;;;;;21.86;55.13;102713.88;5026981;28;20025;-60
2022/07/17 08:10:59;;;;;;;5.78;2.70;;;;;;;21.94;53.21;102712.22;5029356;28;20033;-59
2022/07/17 08:13:24;;;;;;;8.70;3.53;;;;;;;22.00;53.56;102707.03;5029760;28;20580;-60
2022/07/17 08:15:50;;;;;;;9.38;4.45;;;;;;;22.10;54.15;102717.72;5022473;28;20049;-60
2022/07/17 08:18:16;;;;;;;5.85;3.00;;;;;;;22.17;54.11;102722.19;5011901;28;20029;-59
2022/07/17 08:20:42;;;;;;;5.80;3.15;;;;;;;22.23;52.25;102719.66;5016633;28;20030;-59
2022/07/17 08:23:08;;;;;;;6.25;3.20;;;;;;;22.34;51.15;102716.25;5023910;28;20041;-60
2022/07/17 08:25:34;;;;;;;6.65;3.22;;;;;;;22.39;50.87;102718.09;5025423;28;20783;-60
2022/07/17 08:27:59;;;;;;;6.43;2.95;;;;;;;22.43;50.77;102716.38;5013063;28;20355;-60
2022/07/17 08:30:25;;;;;;;7.43;2.45;;;;;;;22.45;50.02;102719.91;5014520;28;20026;-60
2022/07/17 08:32:50;;;;;;;5.60;1.98;;;;;;;22.54;50.64;102716.50;5017266;28;20029;-61
2022/07/17 08:35:16;;;;;;;3.70;1.88;;;;;;;22.63;50.86;102713.97;5020954;28;20065;-60
2022/07/17 08:37:44;;;;;;;4.97;1.80;;;;;;;22.69;48.34;102714.91;5023478;28;20511;-60
2022/07/17 08:40:15;;;;;;;3.08;2.03;;;;;;;22.77;48.11;102715.91;5018322;28;20041;-60
2022/07/17 08:42:42;;;;;;;3.58;2.30;;;;;;;22.60;48.61;102706.00;5013876;28;20025;-60
2022/07/17 08:45:09;;;;;;;4.38;2.25;;;;;;;21.98;48.83;102714.06;5019467;28;20030;-60
2022/07/17 08:47:35;;;;;;;5.93;2.15;;;;;;;22.23;50.64;102714.38;5012960;28;20038;-59
2022/07/17 08:50:02;;;;;;;3.35;1.80;;;;;;;22.46;50.64;102704.94;5024327;28;20044;-60
2022/07/17 08:52:27;;;;;;;3.13;2.00;;;;;;;22.62;50.47;102706.00;5022316;28;20030;-60
2022/07/17 08:54:52;;;;;;;4.60;1.98;;;;;;;22.80;50.27;102710.63;5024457;28;20155;-60
2022/07/17 08:57:18;;;;;;;3.55;2.00;;;;;;;22.91;48.68;102708.09;5026267;28;20438;-60
2022/07/17 08:59:47;;;;;;;5.05;2.00;;;;;;;23.09;49.29;102717.97;5020130;28;20374;-60
2022/07/17 09:02:13;;;;;;;3.35;1.75;;;;;;;23.30;49.42;102715.47;5018877;28;20026;-59
2022/07/17 09:04:39;;;;;;;4.40;1.95;;;;;;;23.48;47.28;102707.72;5029387;28;20032;-59
2022/07/17 09:07:05;;;;;;;5.13;1.40;;;;;;;23.62;47.34;102709.56;5015270;28;20025;-59
2022/07/17 09:09:33;;;;;;;3.47;1.50;;;;;;;23.59;43.51;102707.78;5012654;28;20072;-60
2022/07/17 09:12:01;;;;;;;4.57;1.63;;;;;;;23.73;44.98;102709.63;5016478;28;20060;-60
2022/07/17 09:14:46;;;;;;;3.28;1.30;;;;;;;23.83;44.93;102702.66;5010982;28;20043;-60
2022/07/17 09:17:12;;;;;;;4.13;1.77;;;;;;;24.00;46.30;102702.72;5014551;28;20041;-61
2022/07/17 09:19:41;;;;;;;4.18;1.83;;;;;;;24.03;44.41;102704.50;5011696;28;20033;-60
2022/07/17 09:22:11;;;;;;;5.85;2.20;;;;;;;23.93;44.78;102707.09;5019851;28;20580;-60
2022/07/17 09:24:44;;;;;;;6.32;2.25;;;;;;;23.75;44.75;102703.47;5020451;28;20045;-61
2022/07/17 09:27:13;;;;;;;4.00;1.80;;;;;;;23.86;47.33;102700.00;5019028;28;20033;-60
2022/07/17 09:29:58;;;;;;;6.28;1.80;;;;;;;24.06;47.53;102702.75;5017016;28;20041;-60
2022/07/17 09:32:29;;;;;;;8.05;2.38;;;;;;;24.25;45.86;102696.69;5012660;28;20365;-59
2022/07/17 09:34:56;;;;;;;2.90;1.77;;;;;;;24.33;45.28;102698.47;5015252;28;20028;-62
2022/07/17 09:37:23;;;;;;;4.45;2.10;;;;;;;24.44;44.69;102703.81;5016997;28;20037;-63
2022/07/17 09:39:49;;;;;;;5.03;1.70;;;;;;;24.55;45.94;102692.34;5023936;28;20041;-60
2022/07/17 09:42:28;;;;;;;4.07;1.67;;;;;;;24.55;45.27;102679.13;5022483;28;20103;-60
2022/07/17 09:44:55;;;;;;;4.43;1.50;;;;;;;24.66;44.92;102682.66;5013375;28;20053;-60
2022/07/17 09:47:26;;;;;;;5.32;2.00;;;;;;;24.66;44.91;102685.28;5025764;28;20033;-60
2022/07/17 09:49:56;;;;;;;5.45;1.80;;;;;;;24.72;43.16;102687.06;5014582;28;20033;-61
2022/07/17 09:52:30;;;;;;;4.55;1.67;;;;;;;24.80;41.87;102684.44;5010659;28;21683;-61
2022/07/17 09:54:56;;;;;;;4.30;1.85;;;;;;;24.70;41.76;102687.06;5014923;28;20033;-61
2022/07/17 09:57:27;;;;;;;6.28;1.83;;;;;;;24.74;43.00;102684.41;5018173;28;20063;-61
2022/07/17 09:59:54;;;;;;;6.53;1.90;;;;;;;24.85;43.38;102689.75;5016158;28;20173;-60
2022/07/17 10:02:20;;;;;;;4.78;1.70;;;;;;;24.79;41.46;102688.00;5017072;28;20034;-61
2022/07/17 10:04:46;;;;;;;5.75;1.92;;;;;;;24.85;42.36;102687.09;5019362;28;20053;-60
2022/07/17 10:07:12;;;;;;;4.88;1.92;;;;;;;24.89;43.60;102684.47;5012152;28;20031;-60
2022/07/17 10:09:38;;;;;;;3.00;1.90;;;;;;;25.02;42.11;102689.81;5016390;28;20021;-60
2022/07/17 10:12:05;;;;;;;3.80;1.80;;;;;;;25.10;43.49;102688.03;5014327;28;20091;-61
2022/07/17 10:14:32;;;;;;;3.83;1.83;;;;;;;25.17;41.92;102699.50;5011700;28;20049;-61
2022/07/17 10:17:27;;;;;;;2.80;1.50;;;;;;;25.33;42.16;102688.91;5011637;28;20049;-62
2022/07/17 10:19:54;;;;;;;3.42;1.60;;;;;;;25.42;40.47;102695.06;5007104;28;20049;-61
2022/07/17 10:22:20;;;;;;;4.10;2.08;;;;;;;25.36;38.49;102692.44;5012638;28;20041;-59
2022/07/17 10:24:56;;;;;;;4.35;1.95;;;;;;;25.22;41.34;102696.88;5015397;28;20449;-59
2022/07/17 10:27:30;;;;;;;4.30;2.00;;;;;;;25.14;39.31;102688.91;5012188;28;20029;-59
2022/07/17 10:30:06;;;;;;;5.13;2.03;;;;;;;25.18;42.29;102688.88;5019515;28;20044;-59
2022/07/17 10:32:32;;;;;;;3.75;1.80;;;;;;;25.38;42.27;102690.63;5013121;28;20037;-59
2022/07/17 10:35:05;;;;;;;3.88;2.40;;;;;;;25.45;40.06;102688.00;5011199;28;20136;-59
2022/07/17 10:37:39;;;;;;;6.35;1.95;;;;;;;25.32;40.36;102698.63;5011406;28;20076;-59
2022/07/17 10:40:25;;;;;;;3.53;1.80;;;;;;;25.35;40.98;102698.59;5010622;28;20446;-59
2022/07/17 10:43:01;;;;;;;4.60;1.90;;;;;;;25.23;40.96;102698.63;5013846;28;20041;-59
2022/07/17 10:45:39;;;;;;;7.28;2.55;;;;;;;25.30;42.51;102695.06;5010221;28;20018;-59
2022/07/17 10:48:12;;;;;;;3.17;1.77;;;;;;;25.50;41.42;102684.44;5021146;28;20590;-60
2022/07/17 10:50:48;;;;;;;3.95;2.05;;;;;;;25.53;41.00;102687.09;5024653;28;20025;-60
2022/07/17 10:53:27;;;;;;;8.02;2.22;;;;;;;25.54;41.33;102683.53;5013198;28;20783;-59
2022/07/17 10:55:56;;;;;;;3.90;1.95;;;;;;;25.62;41.20;102683.53;5017820;28;20049;-61
2022/07/17 10:58:31;;;;;;;4.85;1.77;;;;;;;25.58;39.32;102684.41;5020110;28;20068;-60
2022/07/17 11:01:02;;;;;;;4.63;1.48;;;;;;;25.61;39.04;102679.13;5021824;28;20148;-60
2022/07/17 11:03:28;;;;;;;3.97;1.77;;;;;;;25.73;40.77;102687.94;5011985;28;20029;-60
2022/07/17 11:05:54;;;;;;;3.35;1.60;;;;;;;25.84;39.67;102683.50;5011860;28;20036;-60
2022/07/17 11:08:20;;;;;;;4.00;1.40;;;;;;;25.97;41.17;102691.41;5009273;28;20037;-60
2022/07/17 11:10:47;;;;;;;3.13;1.70;;;;;;;26.01;38.78;102683.41;5015737;28;20048;-60
2022/07/17 11:13:15;;;;;;;3.90;1.45;;;;;;;26.17;40.93;102685.13;5017518;28;20074;-60
2022/07/17 11:15:45;;;;;;;3.30;1.15;;;;;;;26.21;38.02;102689.56;5010869;28;20684;-60
2022/07/17 11:18:22;;;;;;;4.35;1.95;;;;;;;26.17;38.42;102693.09;5011197;28;20026;-59
2022/07/17 11:20:48;;;;;;;5.10;1.80;;;;;;;26.02;35.74;102687.84;5008987;28;20037;-60